sensor_id;sensor_type;location;lat;lon;timestamp;P1;durP1;ratioP1;P2;durP2;ratioP2
44426;SDS011;30133;47.866;-4.222;2024-02-15T00:02:15;3.33;;;1.80;;
44426;SDS011;30133;47.866;-4.222;2024-02-15T00:04:41;6.15;;;2.00;;
44426;SDS011;30133;47.866;-4.222;2024-02-15T00:07:07;3.72;;;1.65;;
44426;SDS011;30133;47.866;-4.222;2024-02-15T00:09:33;4.22;;;1.45;;
44426;SDS011;30133;47.866;-4.222;2024-02-15T00:11:59;3.58;;;1.77;;
44426;SDS011;30133;47.866;-4.222;2024-02-15T00:14:26;3.55;;;1.55;;
44426;SDS011;30133;47.866;-4.222;2024-02-15T00:16:53;4.30;;;1.98;;
44426;SDS011;30133;47.866;-4.222;2024-02-15T00:19:20;4.78;;;1.65;;
44426;SDS011;30133;47.866;-4.222;2024-02-15T00:21:46;4.53;;;1.67;;
44426;SDS011;30133;47.866;-4.222;2024-02-15T00:24:13;5.50;;;2.00;;
44426;SDS011;30133;47.866;-4.222;2024-02-15T00:26:40;5.82;;;1.67;;
44426;SDS011;30133;47.866;-4.222;2024-02-15T00:29:08;4.40;;;2.40;;
44426;SDS011;30133;47.866;-4.222;2024-02-15T00:31:34;5.75;;;2.28;;
44426;SDS011;30133;47.866;-4.222;2024-02-15T00:34:00;4.80;;;1.58;;
44426;SDS011;30133;47.866;-4.222;2024-02-15T00:36:28;4.53;;;1.90;;
44426;SDS011;30133;47.866;-4.222;2024-02-15T00:38:54;3.13;;;1.42;;
44426;SDS011;30133;47.866;-4.222;2024-02-15T00:41:20;7.53;;;1.67;;
44426;SDS011;30133;47.866;-4.222;2024-02-15T00:43:47;2.72;;;1.52;;
44426;SDS011;30133;47.866;-4.222;2024-02-15T00:46:13;2.47;;;1.55;;
44426;SDS011;30133;47.866;-4.222;2024-02-15T00:48:39;5.03;;;2.13;;
44426;SDS011;30133;47.866;-4.222;2024-02-15T00:51:06;6.22;;;2.45;;
44426;SDS011;30133;47.866;-4.222;2024-02-15T00:53:32;5.55;;;2.03;;
44426;SDS011;30133;47.866;-4.222;2024-02-15T00:55:58;2.47;;;1.50;;
44426;SDS011;30133;47.866;-4.222;2024-02-15T00:58:24;4.80;;;1.70;;
44426;SDS011;30133;47.866;-4.222;2024-02-15T01:00:52;6.65;;;1.80;;
44426;SDS011;30133;47.866;-4.222;2024-02-15T01:03:21;4.75;;;2.22;;
44426;SDS011;30133;47.866;-4.222;2024-02-15T01:05:47;5.30;;;2.05;;
44426;SDS011;30133;47.866;-4.222;2024-02-15T01:08:13;8.27;;;2.30;;
44426;SDS011;30133;47.866;-4.222;2024-02-15T01:10:39;8.38;;;2.53;;
44426;SDS011;30133;47.866;-4.222;2024-02-15T01:13:05;5.60;;;1.75;;
44426;SDS011;30133;47.866;-4.222;2024-02-15T01:15:31;2.40;;;1.45;;
44426;SDS011;30133;47.866;-4.222;2024-02-15T01:17:57;10.93;;;2.70;;
44426;SDS011;30133;47.866;-4.222;2024-02-15T01:20:22;5.00;;;1.75;;
44426;SDS011;30133;47.866;-4.222;2024-02-15T01:22:48;7.38;;;2.28;;
44426;SDS011;30133;47.866;-4.222;2024-02-15T01:25:16;6.97;;;2.85;;
44426;SDS011;30133;47.866;-4.222;2024-02-15T01:27:43;4.80;;;2.42;;
44426;SDS011;30133;47.866;-4.222;2024-02-15T01:30:09;4.90;;;2.05;;
44426;SDS011;30133;47.866;-4.222;2024-02-15T01:32:35;6.85;;;2.70;;
44426;SDS011;30133;47.866;-4.222;2024-02-15T01:35:02;6.53;;;2.38;;
44426;SDS011;30133;47.866;-4.222;2024-02-15T01:37:28;6.05;;;2.15;;
44426;SDS011;30133;47.866;-4.222;2024-02-15T01:39:53;3.60;;;1.83;;
44426;SDS011;30133;47.866;-4.222;2024-02-15T01:42:19;9.07;;;2.55;;
44426;SDS011;30133;47.866;-4.222;2024-02-15T01:44:45;4.43;;;2.05;;
44426;SDS011;30133;47.866;-4.222;2024-02-15T01:47:12;7.93;;;2.30;;
44426;SDS011;30133;47.866;-4.222;2024-02-15T01:49:39;7.43;;;2.33;;
44426;SDS011;30133;47.866;-4.222;2024-02-15T01:52:06;4.10;;;1.88;;
44426;SDS011;30133;47.866;-4.222;2024-02-15T01:54:34;6.15;;;2.03;;
44426;SDS011;30133;47.866;-4.222;2024-02-15T01:57:04;4.60;;;1.83;;
44426;SDS011;30133;47.866;-4.222;2024-02-15T01:59:30;6.32;;;2.03;;
44426;SDS011;30133;47.866;-4.222;2024-02-15T02:01:56;8.20;;;2.47;;
44426;SDS011;30133;47.866;-4.222;2024-02-15T02:04:22;6.68;;;2.47;;
44426;SDS011;30133;47.866;-4.222;2024-02-15T02:06:48;6.32;;;2.30;;
44426;SDS011;30133;47.866;-4.222;2024-02-15T02:09:14;5.97;;;2.60;;
44426;SDS011;30133;47.866;-4.222;2024-02-15T02:11:41;3.83;;;2.08;;
44426;SDS011;30133;47.866;-4.222;2024-02-15T02:14:10;7.10;;;2.88;;
44426;SDS011;30133;47.866;-4.222;2024-02-15T02:16:36;3.13;;;1.80;;
44426;SDS011;30133;47.866;-4.222;2024-02-15T02:19:04;7.00;;;2.30;;
44426;SDS011;30133;47.866;-4.222;2024-02-15T02:21:34;5.88;;;2.40;;
44426;SDS011;30133;47.866;-4.222;2024-02-15T02:24:02;6.10;;;2.33;;
44426;SDS011;30133;47.866;-4.222;2024-02-15T02:26:33;5.15;;;1.85;;
44426;SDS011;30133;47.866;-4.222;2024-02-15T02:29:02;4.45;;;1.88;;
44426;SDS011;30133;47.866;-4.222;2024-02-15T02:31:32;8.88;;;3.03;;
44426;SDS011;30133;47.866;-4.222;2024-02-15T02:33:59;6.90;;;2.42;;
44426;SDS011;30133;47.866;-4.222;2024-02-15T02:36:26;7.90;;;2.67;;
44426;SDS011;30133;47.866;-4.222;2024-02-15T02:38:52;7.82;;;2.50;;
44426;SDS011;30133;47.866;-4.222;2024-02-15T02:41:18;5.68;;;2.65;;
44426;SDS011;30133;47.866;-4.222;2024-02-15T02:43:44;6.43;;;2.20;;
44426;SDS011;30133;47.866;-4.222;2024-02-15T02:46:11;5.65;;;2.72;;
44426;SDS011;30133;47.866;-4.222;2024-02-15T02:48:37;5.68;;;2.33;;
44426;SDS011;30133;47.866;-4.222;2024-02-15T02:51:04;6.32;;;2.10;;
44426;SDS011;30133;47.866;-4.222;2024-02-15T02:53:31;7.47;;;2.75;;
44426;SDS011;30133;47.866;-4.222;2024-02-15T02:55:57;4.82;;;2.40;;
44426;SDS011;30133;47.866;-4.222;2024-02-15T02:58:23;7.20;;;2.67;;
44426;SDS011;30133;47.866;-4.222;2024-02-15T03:00:49;5.18;;;2.58;;
44426;SDS011;30133;47.866;-4.222;2024-02-15T03:03:16;6.03;;;2.50;;
44426;SDS011;30133;47.866;-4.222;2024-02-15T03:05:44;9.75;;;2.58;;
44426;SDS011;30133;47.866;-4.222;2024-02-15T03:08:13;9.30;;;2.30;;
44426;SDS011;30133;47.866;-4.222;2024-02-15T03:10:39;7.63;;;2.80;;
44426;SDS011;30133;47.866;-4.222;2024-02-15T03:13:06;5.30;;;2.00;;
44426;SDS011;30133;47.866;-4.222;2024-02-15T03:15:34;6.38;;;2.53;;
44426;SDS011;30133;47.866;-4.222;2024-02-15T03:18:00;7.82;;;3.00;;
44426;SDS011;30133;47.866;-4.222;2024-02-15T03:20:36;5.60;;;2.40;;
44426;SDS011;30133;47.866;-4.222;2024-02-15T03:23:02;6.55;;;2.17;;
44426;SDS011;30133;47.866;-4.222;2024-02-15T03:25:29;6.65;;;2.72;;
44426;SDS011;30133;47.866;-4.222;2024-02-15T03:27:55;7.88;;;2.53;;
44426;SDS011;30133;47.866;-4.222;2024-02-15T03:30:23;5.55;;;2.38;;
44426;SDS011;30133;47.866;-4.222;2024-02-15T03:32:50;6.57;;;2.40;;
44426;SDS011;30133;47.866;-4.222;2024-02-15T03:35:22;4.05;;;2.22;;
44426;SDS011;30133;47.866;-4.222;2024-02-15T03:37:52;9.40;;;3.00;;
44426;SDS011;30133;47.866;-4.222;2024-02-15T03:40:18;5.85;;;2.03;;
44426;SDS011;30133;47.866;-4.222;2024-02-15T03:42:45;5.72;;;2.70;;
44426;SDS011;30133;47.866;-4.222;2024-02-15T03:45:17;5.03;;;2.25;;
44426;SDS011;30133;47.866;-4.222;2024-02-15T03:47:43;5.20;;;2.15;;
44426;SDS011;30133;47.866;-4.222;2024-02-15T03:50:10;6.10;;;2.63;;
44426;SDS011;30133;47.866;-4.222;2024-02-15T03:52:37;9.95;;;2.72;;
44426;SDS011;30133;47.866;-4.222;2024-02-15T03:55:03;8.07;;;2.58;;
44426;SDS011;30133;47.866;-4.222;2024-02-15T03:57:30;14.40;;;3.20;;
44426;SDS011;30133;47.866;-4.222;2024-02-15T03:59:56;11.55;;;3.15;;
44426;SDS011;30133;47.866;-4.222;2024-02-15T04:02:24;3.92;;;2.15;;
44426;SDS011;30133;47.866;-4.222;2024-02-15T04:04:55;5.72;;;2.40;;
44426;SDS011;30133;47.866;-4.222;2024-02-15T04:07:22;7.43;;;2.17;;
44426;SDS011;30133;47.866;-4.222;2024-02-15T04:09:52;6.45;;;2.55;;
44426;SDS011;30133;47.866;-4.222;2024-02-15T04:12:19;8.32;;;2.55;;
44426;SDS011;30133;47.866;-4.222;2024-02-15T04:14:45;5.63;;;2.20;;
44426;SDS011;30133;47.866;-4.222;2024-02-15T04:17:11;7.40;;;2.35;;
44426;SDS011;30133;47.866;-4.222;2024-02-15T04:19:47;7.55;;;2.60;;
44426;SDS011;30133;47.866;-4.222;2024-02-15T04:22:15;6.07;;;2.10;;
44426;SDS011;30133;47.866;-4.222;2024-02-15T04:24:44;7.57;;;2.30;;
44426;SDS011;30133;47.866;-4.222;2024-02-15T04:27:10;7.40;;;2.20;;
44426;SDS011;30133;47.866;-4.222;2024-02-15T04:29:39;6.15;;;2.38;;
44426;SDS011;30133;47.866;-4.222;2024-02-15T04:32:12;7.95;;;3.20;;
44426;SDS011;30133;47.866;-4.222;2024-02-15T04:34:39;6.63;;;2.80;;
44426;SDS011;30133;47.866;-4.222;2024-02-15T04:37:05;4.28;;;2.28;;
44426;SDS011;30133;47.866;-4.222;2024-02-15T04:39:37;7.22;;;2.58;;
44426;SDS011;30133;47.866;-4.222;2024-02-15T04:42:03;7.30;;;2.63;;
44426;SDS011;30133;47.866;-4.222;2024-02-15T04:44:31;8.10;;;2.78;;
44426;SDS011;30133;47.866;-4.222;2024-02-15T04:47:00;5.82;;;2.42;;
44426;SDS011;30133;47.866;-4.222;2024-02-15T04:49:27;6.57;;;2.30;;
44426;SDS011;30133;47.866;-4.222;2024-02-15T04:51:54;8.65;;;2.70;;
44426;SDS011;30133;47.866;-4.222;2024-02-15T04:54:20;7.07;;;2.80;;
44426;SDS011;30133;47.866;-4.222;2024-02-15T04:56:47;5.57;;;2.28;;
44426;SDS011;30133;47.866;-4.222;2024-02-15T04:59:12;6.35;;;2.60;;
44426;SDS011;30133;47.866;-4.222;2024-02-15T05:01:40;9.65;;;2.67;;
44426;SDS011;30133;47.866;-4.222;2024-02-15T05:04:11;6.68;;;2.28;;
44426;SDS011;30133;47.866;-4.222;2024-02-15T05:06:38;4.68;;;2.13;;
44426;SDS011;30133;47.866;-4.222;2024-02-15T05:09:06;6.93;;;2.78;;
44426;SDS011;30133;47.866;-4.222;2024-02-15T05:11:35;6.57;;;2.53;;
44426;SDS011;30133;47.866;-4.222;2024-02-15T05:14:12;6.70;;;2.28;;
44426;SDS011;30133;47.866;-4.222;2024-02-15T05:16:44;10.10;;;3.17;;
44426;SDS011;30133;47.866;-4.222;2024-02-15T05:19:12;5.03;;;2.40;;
44426;SDS011;30133;47.866;-4.222;2024-02-15T05:21:42;7.72;;;2.80;;
44426;SDS011;30133;47.866;-4.222;2024-02-15T05:24:12;5.47;;;2.13;;
44426;SDS011;30133;47.866;-4.222;2024-02-15T05:26:39;5.05;;;2.30;;
44426;SDS011;30133;47.866;-4.222;2024-02-15T05:29:15;8.07;;;2.70;;
44426;SDS011;30133;47.866;-4.222;2024-02-15T05:31:41;4.43;;;2.30;;
44426;SDS011;30133;47.866;-4.222;2024-02-15T05:34:07;6.85;;;2.58;;
44426;SDS011;30133;47.866;-4.222;2024-02-15T05:36:36;7.97;;;3.10;;
44426;SDS011;30133;47.866;-4.222;2024-02-15T05:39:03;7.75;;;2.83;;
44426;SDS011;30133;47.866;-4.222;2024-02-15T05:41:30;5.57;;;2.35;;
44426;SDS011;30133;47.866;-4.222;2024-02-15T05:43:59;5.85;;;2.17;;
44426;SDS011;30133;47.866;-4.222;2024-02-15T05:46:25;8.18;;;2.83;;
44426;SDS011;30133;47.866;-4.222;2024-02-15T05:48:53;11.18;;;3.03;;
44426;SDS011;30133;47.866;-4.222;2024-02-15T05:51:19;11.57;;;2.90;;
44426;SDS011;30133;47.866;-4.222;2024-02-15T05:53:45;6.35;;;2.70;;
44426;SDS011;30133;47.866;-4.222;2024-02-15T05:56:11;6.13;;;2.65;;
44426;SDS011;30133;47.866;-4.222;2024-02-15T05:58:37;10.93;;;3.08;;
44426;SDS011;30133;47.866;-4.222;2024-02-15T06:01:05;9.30;;;2.75;;
44426;SDS011;30133;47.866;-4.222;2024-02-15T06:03:32;5.43;;;2.40;;
44426;SDS011;30133;47.866;-4.222;2024-02-15T06:05:59;8.73;;;3.22;;
44426;SDS011;30133;47.866;-4.222;2024-02-15T06:08:27;12.23;;;3.47;;
44426;SDS011;30133;47.866;-4.222;2024-02-15T06:10:56;12.57;;;3.40;;
44426;SDS011;30133;47.866;-4.222;2024-02-15T06:13:22;7.78;;;3.17;;
44426;SDS011;30133;47.866;-4.222;2024-02-15T06:15:49;7.05;;;2.47;;
44426;SDS011;30133;47.866;-4.222;2024-02-15T06:18:22;10.50;;;3.15;;
44426;SDS011;30133;47.866;-4.222;2024-02-15T06:20:57;10.23;;;3.00;;
44426;SDS011;30133;47.866;-4.222;2024-02-15T06:23:24;9.60;;;2.28;;
44426;SDS011;30133;47.866;-4.222;2024-02-15T06:25:52;9.13;;;2.63;;
44426;SDS011;30133;47.866;-4.222;2024-02-15T06:28:20;4.47;;;2.33;;
44426;SDS011;30133;47.866;-4.222;2024-02-15T06:31:05;6.22;;;2.95;;
44426;SDS011;30133;47.866;-4.222;2024-02-15T06:33:50;6.75;;;2.65;;
44426;SDS011;30133;47.866;-4.222;2024-02-15T06:36:39;16.98;;;2.72;;
44426;SDS011;30133;47.866;-4.222;2024-02-15T06:39:32;7.95;;;2.78;;
44426;SDS011;30133;47.866;-4.222;2024-02-15T06:42:10;6.22;;;2.80;;
44426;SDS011;30133;47.866;-4.222;2024-02-15T06:44:47;6.20;;;2.58;;
44426;SDS011;30133;47.866;-4.222;2024-02-15T06:47:13;8.40;;;2.47;;
44426;SDS011;30133;47.866;-4.222;2024-02-15T06:49:42;7.38;;;3.70;;
44426;SDS011;30133;47.866;-4.222;2024-02-15T06:52:10;8.68;;;2.90;;
44426;SDS011;30133;47.866;-4.222;2024-02-15T06:54:40;9.57;;;3.25;;
44426;SDS011;30133;47.866;-4.222;2024-02-15T06:57:07;8.05;;;2.80;;
44426;SDS011;30133;47.866;-4.222;2024-02-15T06:59:33;5.15;;;2.17;;
44426;SDS011;30133;47.866;-4.222;2024-02-15T07:04:30;11.73;;;3.17;;
44426;SDS011;30133;47.866;-4.222;2024-02-15T07:06:57;6.75;;;2.50;;
44426;SDS011;30133;47.866;-4.222;2024-02-15T07:09:24;5.43;;;2.53;;
44426;SDS011;30133;47.866;-4.222;2024-02-15T07:11:50;6.15;;;2.85;;
44426;SDS011;30133;47.866;-4.222;2024-02-15T07:14:16;5.82;;;2.63;;
44426;SDS011;30133;47.866;-4.222;2024-02-15T07:16:45;7.32;;;2.53;;
44426;SDS011;30133;47.866;-4.222;2024-02-15T07:19:12;9.00;;;2.70;;
44426;SDS011;30133;47.866;-4.222;2024-02-15T07:21:38;8.55;;;3.05;;
44426;SDS011;30133;47.866;-4.222;2024-02-15T07:24:05;7.40;;;3.03;;
44426;SDS011;30133;47.866;-4.222;2024-02-15T07:26:31;13.20;;;3.08;;
44426;SDS011;30133;47.866;-4.222;2024-02-15T07:28:59;10.63;;;3.33;;
44426;SDS011;30133;47.866;-4.222;2024-02-15T07:31:29;9.63;;;3.42;;
44426;SDS011;30133;47.866;-4.222;2024-02-15T07:33:55;7.50;;;2.72;;
44426;SDS011;30133;47.866;-4.222;2024-02-15T07:36:21;7.90;;;2.80;;
44426;SDS011;30133;47.866;-4.222;2024-02-15T07:38:48;10.82;;;3.00;;
44426;SDS011;30133;47.866;-4.222;2024-02-15T07:41:17;6.88;;;2.80;;
44426;SDS011;30133;47.866;-4.222;2024-02-15T07:43:44;10.30;;;3.15;;
44426;SDS011;30133;47.866;-4.222;2024-02-15T07:46:12;8.00;;;2.50;;
44426;SDS011;30133;47.866;-4.222;2024-02-15T07:48:44;10.30;;;2.88;;
44426;SDS011;30133;47.866;-4.222;2024-02-15T07:51:14;6.63;;;3.08;;
44426;SDS011;30133;47.866;-4.222;2024-02-15T07:53:41;9.85;;;3.28;;
44426;SDS011;30133;47.866;-4.222;2024-02-15T07:56:08;8.77;;;3.45;;
44426;SDS011;30133;47.866;-4.222;2024-02-15T07:58:38;10.57;;;2.95;;
44426;SDS011;30133;47.866;-4.222;2024-02-15T08:01:07;10.40;;;3.28;;
44426;SDS011;30133;47.866;-4.222;2024-02-15T08:03:36;11.75;;;3.75;;
44426;SDS011;30133;47.866;-4.222;2024-02-15T08:06:02;9.15;;;2.95;;
44426;SDS011;30133;47.866;-4.222;2024-02-15T08:08:32;6.60;;;2.60;;
44426;SDS011;30133;47.866;-4.222;2024-02-15T08:10:59;13.50;;;4.00;;
44426;SDS011;30133;47.866;-4.222;2024-02-15T08:13:27;7.85;;;3.17;;
44426;SDS011;30133;47.866;-4.222;2024-02-15T08:15:54;4.70;;;2.47;;
44426;SDS011;30133;47.866;-4.222;2024-02-15T08:18:20;8.50;;;3.03;;
44426;SDS011;30133;47.866;-4.222;2024-02-15T08:20:47;10.25;;;3.38;;
44426;SDS011;30133;47.866;-4.222;2024-02-15T08:23:13;7.65;;;2.65;;
44426;SDS011;30133;47.866;-4.222;2024-02-15T08:25:39;6.47;;;2.83;;
44426;SDS011;30133;47.866;-4.222;2024-02-15T08:28:07;6.78;;;2.70;;
44426;SDS011;30133;47.866;-4.222;2024-02-15T08:30:33;9.30;;;3.45;;
44426;SDS011;30133;47.866;-4.222;2024-02-15T08:32:59;6.80;;;3.45;;
44426;SDS011;30133;47.866;-4.222;2024-02-15T08:35:25;8.20;;;3.10;;
44426;SDS011;30133;47.866;-4.222;2024-02-15T08:37:51;7.03;;;2.92;;
44426;SDS011;30133;47.866;-4.222;2024-02-15T08:40:18;7.97;;;2.67;;
44426;SDS011;30133;47.866;-4.222;2024-02-15T08:42:49;8.68;;;3.40;;
44426;SDS011;30133;47.866;-4.222;2024-02-15T08:45:15;11.40;;;3.03;;
44426;SDS011;30133;47.866;-4.222;2024-02-15T08:47:42;9.60;;;3.10;;
44426;SDS011;30133;47.866;-4.222;2024-02-15T08:50:09;7.18;;;2.75;;
44426;SDS011;30133;47.866;-4.222;2024-02-15T08:52:39;12.10;;;3.38;;
44426;SDS011;30133;47.866;-4.222;2024-02-15T08:55:09;7.32;;;3.15;;
44426;SDS011;30133;47.866;-4.222;2024-02-15T08:57:39;9.90;;;2.90;;
44426;SDS011;30133;47.866;-4.222;2024-02-15T09:00:09;7.32;;;3.08;;
44426;SDS011;30133;47.866;-4.222;2024-02-15T09:02:41;12.52;;;3.50;;
44426;SDS011;30133;47.866;-4.222;2024-02-15T09:05:08;6.18;;;2.88;;
44426;SDS011;30133;47.866;-4.222;2024-02-15T09:07:34;6.53;;;2.83;;
44426;SDS011;30133;47.866;-4.222;2024-02-15T09:10:02;8.52;;;3.40;;
44426;SDS011;30133;47.866;-4.222;2024-02-15T09:12:28;7.93;;;2.90;;
44426;SDS011;30133;47.866;-4.222;2024-02-15T09:14:56;8.73;;;3.10;;
44426;SDS011;30133;47.866;-4.222;2024-02-15T09:17:22;9.25;;;2.67;;
44426;SDS011;30133;47.866;-4.222;2024-02-15T09:19:48;8.32;;;3.05;;
44426;SDS011;30133;47.866;-4.222;2024-02-15T09:22:16;7.68;;;3.22;;
44426;SDS011;30133;47.866;-4.222;2024-02-15T09:24:42;8.57;;;2.80;;
44426;SDS011;30133;47.866;-4.222;2024-02-15T09:27:08;8.15;;;2.95;;
44426;SDS011;30133;47.866;-4.222;2024-02-15T09:29:37;9.63;;;3.22;;
44426;SDS011;30133;47.866;-4.222;2024-02-15T09:32:04;7.28;;;2.80;;
44426;SDS011;30133;47.866;-4.222;2024-02-15T09:34:30;8.15;;;2.75;;
44426;SDS011;30133;47.866;-4.222;2024-02-15T09:36:56;6.97;;;2.90;;
44426;SDS011;30133;47.866;-4.222;2024-02-15T09:39:21;9.35;;;3.30;;
44426;SDS011;30133;47.866;-4.222;2024-02-15T09:41:48;7.43;;;3.40;;
44426;SDS011;30133;47.866;-4.222;2024-02-15T09:44:23;9.80;;;3.25;;
44426;SDS011;30133;47.866;-4.222;2024-02-15T09:47:13;10.85;;;2.67;;
44426;SDS011;30133;47.866;-4.222;2024-02-15T09:49:40;8.27;;;2.97;;
44426;SDS011;30133;47.866;-4.222;2024-02-15T09:52:07;6.95;;;2.45;;
44426;SDS011;30133;47.866;-4.222;2024-02-15T09:54:40;7.50;;;2.78;;
44426;SDS011;30133;47.866;-4.222;2024-02-15T09:57:09;7.47;;;3.10;;
44426;SDS011;30133;47.866;-4.222;2024-02-15T09:59:36;6.47;;;2.55;;
44426;SDS011;30133;47.866;-4.222;2024-02-15T10:02:05;9.05;;;3.22;;
44426;SDS011;30133;47.866;-4.222;2024-02-15T10:04:41;7.35;;;2.88;;
44426;SDS011;30133;47.866;-4.222;2024-02-15T10:07:07;5.93;;;2.88;;
44426;SDS011;30133;47.866;-4.222;2024-02-15T10:09:34;7.75;;;2.85;;
44426;SDS011;30133;47.866;-4.222;2024-02-15T10:12:02;11.15;;;3.08;;
44426;SDS011;30133;47.866;-4.222;2024-02-15T10:14:31;6.78;;;2.75;;
44426;SDS011;30133;47.866;-4.222;2024-02-15T10:17:05;11.52;;;3.00;;
44426;SDS011;30133;47.866;-4.222;2024-02-15T10:19:35;7.90;;;2.90;;
44426;SDS011;30133;47.866;-4.222;2024-02-15T10:22:07;8.77;;;3.30;;
44426;SDS011;30133;47.866;-4.222;2024-02-15T10:24:34;7.50;;;3.35;;
44426;SDS011;30133;47.866;-4.222;2024-02-15T10:27:02;11.35;;;3.03;;
44426;SDS011;30133;47.866;-4.222;2024-02-15T10:29:29;7.15;;;2.95;;
44426;SDS011;30133;47.866;-4.222;2024-02-15T10:31:57;7.97;;;2.92;;
44426;SDS011;30133;47.866;-4.222;2024-02-15T10:34:27;8.13;;;3.30;;
44426;SDS011;30133;47.866;-4.222;2024-02-15T10:36:53;9.07;;;2.80;;
44426;SDS011;30133;47.866;-4.222;2024-02-15T10:39:21;7.80;;;2.78;;
44426;SDS011;30133;47.866;-4.222;2024-02-15T10:41:52;14.13;;;3.30;;
44426;SDS011;30133;47.866;-4.222;2024-02-15T10:44:22;11.25;;;3.50;;
44426;SDS011;30133;47.866;-4.222;2024-02-15T10:46:53;10.00;;;2.60;;
44426;SDS011;30133;47.866;-4.222;2024-02-15T10:49:24;8.43;;;2.85;;
44426;SDS011;30133;47.866;-4.222;2024-02-15T10:52:00;7.85;;;2.83;;
44426;SDS011;30133;47.866;-4.222;2024-02-15T10:57:34;9.52;;;2.97;;
44426;SDS011;30133;47.866;-4.222;2024-02-15T11:00:05;10.48;;;3.17;;
44426;SDS011;30133;47.866;-4.222;2024-02-15T11:02:41;9.60;;;3.13;;
44426;SDS011;30133;47.866;-4.222;2024-02-15T11:05:11;10.70;;;3.30;;
44426;SDS011;30133;47.866;-4.222;2024-02-15T11:07:39;6.28;;;2.95;;
44426;SDS011;30133;47.866;-4.222;2024-02-15T11:10:08;9.65;;;3.00;;
44426;SDS011;30133;47.866;-4.222;2024-02-15T11:12:36;6.38;;;3.28;;
44426;SDS011;30133;47.866;-4.222;2024-02-15T11:15:03;5.43;;;2.80;;
44426;SDS011;30133;47.866;-4.222;2024-02-15T11:20:08;7.90;;;2.72;;
44426;SDS011;30133;47.866;-4.222;2024-02-15T11:22:39;7.60;;;3.30;;
44426;SDS011;30133;47.866;-4.222;2024-02-15T11:25:07;6.55;;;3.03;;
44426;SDS011;30133;47.866;-4.222;2024-02-15T11:27:40;9.10;;;3.20;;
44426;SDS011;30133;47.866;-4.222;2024-02-15T11:30:06;10.98;;;3.20;;
44426;SDS011;30133;47.866;-4.222;2024-02-15T11:37:51;8.15;;;3.10;;
44426;SDS011;30133;47.866;-4.222;2024-02-15T11:40:22;4.70;;;2.70;;
44426;SDS011;30133;47.866;-4.222;2024-02-15T11:42:49;5.03;;;2.83;;
44426;SDS011;30133;47.866;-4.222;2024-02-15T11:45:19;7.15;;;2.72;;
44426;SDS011;30133;47.866;-4.222;2024-02-15T11:47:49;12.05;;;3.83;;
44426;SDS011;30133;47.866;-4.222;2024-02-15T11:50:17;7.78;;;3.22;;
44426;SDS011;30133;47.866;-4.222;2024-02-15T11:52:44;13.27;;;4.03;;
44426;SDS011;30133;47.866;-4.222;2024-02-15T11:55:12;7.53;;;3.00;;
44426;SDS011;30133;47.866;-4.222;2024-02-15T11:57:40;7.55;;;3.72;;
44426;SDS011;30133;47.866;-4.222;2024-02-15T12:00:20;7.65;;;3.10;;
44426;SDS011;30133;47.866;-4.222;2024-02-15T12:03:05;7.78;;;3.60;;
44426;SDS011;30133;47.866;-4.222;2024-02-15T12:05:50;5.35;;;2.85;;
44426;SDS011;30133;47.866;-4.222;2024-02-15T12:08:46;6.60;;;3.28;;
44426;SDS011;30133;47.866;-4.222;2024-02-15T12:11:30;9.63;;;3.35;;
44426;SDS011;30133;47.866;-4.222;2024-02-15T12:14:15;8.93;;;3.53;;
44426;SDS011;30133;47.866;-4.222;2024-02-15T12:17:03;7.15;;;3.60;;
44426;SDS011;30133;47.866;-4.222;2024-02-15T12:19:48;7.63;;;3.50;;
44426;SDS011;30133;47.866;-4.222;2024-02-15T12:22:16;5.97;;;3.00;;
44426;SDS011;30133;47.866;-4.222;2024-02-15T12:24:52;7.82;;;3.15;;
44426;SDS011;30133;47.866;-4.222;2024-02-15T12:27:19;5.45;;;3.00;;
44426;SDS011;30133;47.866;-4.222;2024-02-15T12:29:46;12.00;;;3.13;;
44426;SDS011;30133;47.866;-4.222;2024-02-15T12:32:24;6.60;;;3.22;;
44426;SDS011;30133;47.866;-4.222;2024-02-15T12:34:51;9.73;;;3.55;;
44426;SDS011;30133;47.866;-4.222;2024-02-15T12:37:18;7.68;;;3.45;;
44426;SDS011;30133;47.866;-4.222;2024-02-15T12:39:47;5.47;;;3.13;;
44426;SDS011;30133;47.866;-4.222;2024-02-15T12:42:14;7.55;;;3.30;;
44426;SDS011;30133;47.866;-4.222;2024-02-15T12:44:43;6.20;;;3.03;;
44426;SDS011;30133;47.866;-4.222;2024-02-15T12:47:23;7.13;;;3.30;;
44426;SDS011;30133;47.866;-4.222;2024-02-15T12:49:50;6.15;;;3.20;;
44426;SDS011;30133;47.866;-4.222;2024-02-15T12:55:12;6.43;;;2.78;;
44426;SDS011;30133;47.866;-4.222;2024-02-15T12:57:45;6.95;;;3.03;;
44426;SDS011;30133;47.866;-4.222;2024-02-15T13:00:16;10.70;;;3.25;;
44426;SDS011;30133;47.866;-4.222;2024-02-15T13:02:50;11.07;;;3.25;;
44426;SDS011;30133;47.866;-4.222;2024-02-15T13:05:18;11.82;;;4.20;;
44426;SDS011;30133;47.866;-4.222;2024-02-15T13:07:45;8.52;;;3.17;;
44426;SDS011;30133;47.866;-4.222;2024-02-15T13:10:11;11.95;;;3.05;;
44426;SDS011;30133;47.866;-4.222;2024-02-15T13:12:40;7.05;;;3.17;;
44426;SDS011;30133;47.866;-4.222;2024-02-15T13:15:06;9.38;;;2.90;;
44426;SDS011;30133;47.866;-4.222;2024-02-15T13:17:37;9.48;;;3.33;;
44426;SDS011;30133;47.866;-4.222;2024-02-15T13:20:03;6.97;;;3.40;;
44426;SDS011;30133;47.866;-4.222;2024-02-15T13:22:30;9.52;;;3.35;;
44426;SDS011;30133;47.866;-4.222;2024-02-15T13:24:57;8.57;;;3.13;;
44426;SDS011;30133;47.866;-4.222;2024-02-15T13:27:23;7.28;;;3.00;;
44426;SDS011;30133;47.866;-4.222;2024-02-15T13:29:52;6.07;;;2.83;;
44426;SDS011;30133;47.866;-4.222;2024-02-15T13:32:18;8.75;;;3.47;;
44426;SDS011;30133;47.866;-4.222;2024-02-15T13:34:48;11.25;;;3.72;;
44426;SDS011;30133;47.866;-4.222;2024-02-15T13:37:19;8.57;;;2.83;;
44426;SDS011;30133;47.866;-4.222;2024-02-15T13:39:49;8.55;;;3.08;;
44426;SDS011;30133;47.866;-4.222;2024-02-15T13:42:16;7.50;;;3.08;;
44426;SDS011;30133;47.866;-4.222;2024-02-15T13:44:42;7.78;;;3.15;;
44426;SDS011;30133;47.866;-4.222;2024-02-15T13:47:09;7.40;;;2.95;;
44426;SDS011;30133;47.866;-4.222;2024-02-15T13:49:37;10.95;;;3.17;;
44426;SDS011;30133;47.866;-4.222;2024-02-15T13:52:04;11.45;;;3.83;;
44426;SDS011;30133;47.866;-4.222;2024-02-15T13:54:31;9.27;;;3.08;;
44426;SDS011;30133;47.866;-4.222;2024-02-15T13:56:58;7.82;;;3.50;;
44426;SDS011;30133;47.866;-4.222;2024-02-15T13:59:27;11.73;;;3.05;;
44426;SDS011;30133;47.866;-4.222;2024-02-15T14:01:54;15.27;;;4.68;;
44426;SDS011;30133;47.866;-4.222;2024-02-15T14:04:21;5.88;;;3.17;;
44426;SDS011;30133;47.866;-4.222;2024-02-15T14:06:47;9.57;;;3.78;;
44426;SDS011;30133;47.866;-4.222;2024-02-15T14:09:13;10.77;;;3.53;;
44426;SDS011;30133;47.866;-4.222;2024-02-15T14:11:39;8.50;;;3.13;;
44426;SDS011;30133;47.866;-4.222;2024-02-15T14:14:05;11.70;;;3.45;;
44426;SDS011;30133;47.866;-4.222;2024-02-15T14:16:31;8.27;;;3.25;;
44426;SDS011;30133;47.866;-4.222;2024-02-15T14:18:58;8.50;;;3.63;;
44426;SDS011;30133;47.866;-4.222;2024-02-15T14:21:24;11.05;;;3.42;;
44426;SDS011;30133;47.866;-4.222;2024-02-15T14:23:50;10.85;;;3.38;;
44426;SDS011;30133;47.866;-4.222;2024-02-15T14:26:16;9.05;;;3.25;;
44426;SDS011;30133;47.866;-4.222;2024-02-15T14:28:43;10.57;;;2.95;;
44426;SDS011;30133;47.866;-4.222;2024-02-15T14:31:12;8.95;;;4.07;;
44426;SDS011;30133;47.866;-4.222;2024-02-15T14:34:01;9.07;;;3.42;;
44426;SDS011;30133;47.866;-4.222;2024-02-15T14:36:27;5.90;;;2.75;;
44426;SDS011;30133;47.866;-4.222;2024-02-15T14:38:53;10.40;;;2.70;;
44426;SDS011;30133;47.866;-4.222;2024-02-15T14:41:19;8.00;;;2.83;;
44426;SDS011;30133;47.866;-4.222;2024-02-15T14:43:47;10.00;;;3.03;;
44426;SDS011;30133;47.866;-4.222;2024-02-15T14:46:13;6.75;;;2.83;;
44426;SDS011;30133;47.866;-4.222;2024-02-15T14:48:38;6.28;;;2.70;;
44426;SDS011;30133;47.866;-4.222;2024-02-15T14:51:05;7.63;;;3.25;;
44426;SDS011;30133;47.866;-4.222;2024-02-15T14:53:31;9.55;;;3.15;;
44426;SDS011;30133;47.866;-4.222;2024-02-15T14:55:58;7.53;;;3.60;;
44426;SDS011;30133;47.866;-4.222;2024-02-15T14:58:24;10.52;;;3.42;;